NDF6DM EDDB-ENVA
Flight info
| Callsign | NDF6DM |
|---|---|
| Flight time | 1h 51m |
| Altitude | 36000 |
| Route | GERGA4N GERGA M725 KOGIM M44 SALLO DCT VEVOD VEVOD1M |
| Aircraft | B738/M-SDE2E3FGHIRWXY/LB1 |
Departure
| Time | 2026-05-01 09:54 |
|---|---|
| Airport | Berlin Brandenburg Airport (EDDB) |
Arrival
| Time | 2026-05-01 11:45 |
|---|---|
| Airport | Trondheim Airport, Værnes (ENVA) |
| Time | Latitude | Longitude | Altitude | Speed | Heading |
|---|---|---|---|---|---|
| 2026-05-01 09:17 | 52.36136 | 13.50746 | 154 ft | 0 kts | 69° |
| 2026-05-01 09:45 | 52.36124 | 13.50694 | 154 ft | 4 kts | 69° |
| 2026-05-01 09:45 | 52.36117 | 13.50661 | 154 ft | 4 kts | 78° |
| 2026-05-01 09:46 | 52.36117 | 13.50621 | 154 ft | 4 kts | 121° |
| 2026-05-01 09:46 | 52.36132 | 13.50597 | 154 ft | 1 kts | 159° |
| 2026-05-01 09:46 | 52.36133 | 13.50597 | 154 ft | 0 kts | 159° |
| 2026-05-01 09:49 | 52.36132 | 13.50597 | 154 ft | 0 kts | 159° |
| 2026-05-01 09:50 | 52.36125 | 13.50602 | 154 ft | 3 kts | 159° |
| 2026-05-01 09:50 | 52.36089 | 13.50625 | 154 ft | 8 kts | 159° |
| 2026-05-01 09:50 | 52.36020 | 13.50668 | 153 ft | 12 kts | 159° |
| 2026-05-01 09:50 | 52.35938 | 13.50720 | 153 ft | 13 kts | 158° |
| 2026-05-01 09:51 | 52.35857 | 13.50772 | 153 ft | 12 kts | 159° |
| 2026-05-01 09:51 | 52.35778 | 13.50818 | 153 ft | 12 kts | 160° |
| 2026-05-01 09:51 | 52.35700 | 13.50837 | 153 ft | 11 kts | 187° |
| 2026-05-01 09:51 | 52.35638 | 13.50761 | 153 ft | 11 kts | 221° |
| 2026-05-01 09:52 | 52.35582 | 13.50690 | 153 ft | 8 kts | 216° |
| 2026-05-01 09:52 | 52.35540 | 13.50635 | 153 ft | 8 kts | 219° |
| 2026-05-01 09:52 | 52.35494 | 13.50574 | 153 ft | 10 kts | 219° |
| 2026-05-01 09:52 | 52.35429 | 13.50520 | 153 ft | 11 kts | 190° |
| 2026-05-01 09:53 | 52.35396 | 13.50439 | 153 ft | 7 kts | 249° |
| 2026-05-01 09:53 | 52.35322 | 13.50122 | 153 ft | 65 kts | 249° |
| 2026-05-01 09:53 | 52.35068 | 13.49071 | 153 ft | 132 kts | 249° |
| 2026-05-01 09:53 | 52.34672 | 13.47446 | 363 ft | 166 kts | 250° |
| 2026-05-01 09:54 | 52.34250 | 13.45695 | 1111 ft | 166 kts | 249° |
| 2026-05-01 09:54 | 52.33688 | 13.44080 | 1913 ft | 167 kts | 236° |
| 2026-05-01 09:54 | 52.32898 | 13.42533 | 2398 ft | 187 kts | 229° |
| 2026-05-01 09:54 | 52.31936 | 13.40840 | 2665 ft | 217 kts | 228° |
| 2026-05-01 09:55 | 52.30880 | 13.38981 | 3064 ft | 230 kts | 228° |
| 2026-05-01 09:55 | 52.29769 | 13.37034 | 3654 ft | 235 kts | 226° |
| 2026-05-01 09:55 | 52.28649 | 13.35009 | 4300 ft | 244 kts | 228° |
| 2026-05-01 09:55 | 52.27520 | 13.32913 | 5151 ft | 244 kts | 227° |
| 2026-05-01 09:56 | 52.26384 | 13.30818 | 5917 ft | 249 kts | 227° |
| 2026-05-01 09:56 | 52.25191 | 13.28744 | 6773 ft | 251 kts | 218° |
| 2026-05-01 09:56 | 52.23628 | 13.27569 | 7476 ft | 250 kts | 184° |
| 2026-05-01 09:56 | 52.21936 | 13.27862 | 8237 ft | 245 kts | 154° |
| 2026-05-01 09:57 | 52.20567 | 13.29429 | 9064 ft | 240 kts | 127° |
| 2026-05-01 09:57 | 52.19742 | 13.31752 | 9917 ft | 238 kts | 109° |
| 2026-05-01 09:57 | 52.19273 | 13.34346 | 10725 ft | 239 kts | 92° |
| 2026-05-01 09:57 | 52.19452 | 13.37072 | 11263 ft | 253 kts | 77° |
| 2026-05-01 09:58 | 52.19919 | 13.39975 | 11702 ft | 271 kts | 74° |
| 2026-05-01 09:58 | 52.20453 | 13.42952 | 12529 ft | 274 kts | 73° |
| 2026-05-01 09:58 | 52.20991 | 13.45929 | 13498 ft | 274 kts | 73° |
| 2026-05-01 09:58 | 52.21521 | 13.48892 | 14400 ft | 277 kts | 73° |
| 2026-05-01 09:59 | 52.22063 | 13.51968 | 15199 ft | 281 kts | 73° |
| 2026-05-01 09:59 | 52.22602 | 13.55061 | 16001 ft | 286 kts | 73° |
| 2026-05-01 09:59 | 52.23145 | 13.58208 | 16822 ft | 290 kts | 73° |
| 2026-05-01 09:59 | 52.23686 | 13.61362 | 17632 ft | 295 kts | 73° |
| 2026-05-01 10:00 | 52.24247 | 13.64646 | 18459 ft | 299 kts | 72° |
| 2026-05-01 10:00 | 52.24800 | 13.67898 | 19186 ft | 303 kts | 72° |
| 2026-05-01 10:00 | 52.25364 | 13.71226 | 19927 ft | 306 kts | 72° |
| 2026-05-01 10:00 | 52.25933 | 13.74591 | 20675 ft | 309 kts | 72° |
| 2026-05-01 10:01 | 52.26509 | 13.78002 | 21386 ft | 313 kts | 73° |
| 2026-05-01 10:01 | 52.27089 | 13.81436 | 22096 ft | 316 kts | 73° |
| 2026-05-01 10:01 | 52.27683 | 13.84972 | 22831 ft | 320 kts | 73° |
| 2026-05-01 10:01 | 52.28265 | 13.88443 | 23505 ft | 323 kts | 73° |
| 2026-05-01 10:02 | 52.28996 | 13.91925 | 24138 ft | 326 kts | 60° |
| 2026-05-01 10:02 | 52.30441 | 13.94837 | 24699 ft | 329 kts | 40° |
| 2026-05-01 10:02 | 52.32376 | 13.96884 | 24909 ft | 347 kts | 25° |
| 2026-05-01 10:02 | 52.34775 | 13.97898 | 25038 ft | 367 kts | 11° |
| 2026-05-01 10:03 | 52.37370 | 13.98451 | 25139 ft | 384 kts | 9° |
| 2026-05-01 10:03 | 52.40080 | 13.98928 | 25235 ft | 399 kts | 8° |
| 2026-05-01 10:03 | 52.42889 | 13.99414 | 25331 ft | 412 kts | 8° |
| 2026-05-01 10:03 | 52.45769 | 13.99936 | 25489 ft | 422 kts | 9° |
| 2026-05-01 10:04 | 52.48717 | 14.00497 | 25780 ft | 428 kts | 9° |
| 2026-05-01 10:04 | 52.51674 | 14.01076 | 26199 ft | 430 kts | 9° |
| 2026-05-01 10:04 | 52.54648 | 14.01668 | 26660 ft | 431 kts | 9° |
| 2026-05-01 10:04 | 52.57634 | 14.02265 | 27077 ft | 433 kts | 9° |
| 2026-05-01 10:05 | 52.60642 | 14.02774 | 27430 ft | 438 kts | 4° |
| 2026-05-01 10:05 | 52.63705 | 14.02404 | 27784 ft | 444 kts | 354° |
| 2026-05-01 10:05 | 52.66763 | 14.01636 | 28166 ft | 446 kts | 353° |
| 2026-05-01 10:05 | 52.69841 | 14.00850 | 28530 ft | 448 kts | 354° |
| 2026-05-01 10:06 | 52.72932 | 14.00117 | 28868 ft | 451 kts | 354° |
| 2026-05-01 10:06 | 52.76049 | 13.99435 | 29279 ft | 451 kts | 355° |
| 2026-05-01 10:06 | 52.79160 | 13.98777 | 29799 ft | 449 kts | 355° |
| 2026-05-01 10:06 | 52.82247 | 13.98133 | 30381 ft | 447 kts | 355° |
| 2026-05-01 10:07 | 52.85332 | 13.97492 | 30837 ft | 445 kts | 355° |
| 2026-05-01 10:07 | 52.88403 | 13.96852 | 31189 ft | 446 kts | 355° |
| 2026-05-01 10:07 | 52.91480 | 13.96206 | 31555 ft | 446 kts | 355° |
| 2026-05-01 10:07 | 52.94557 | 13.95585 | 31940 ft | 445 kts | 355° |
| 2026-05-01 10:08 | 53.00665 | 13.94421 | 32737 ft | 444 kts | 355° |
| 2026-05-01 10:08 | 53.03734 | 13.93839 | 33126 ft | 443 kts | 355° |
| 2026-05-01 10:08 | 53.06791 | 13.93253 | 33494 ft | 443 kts | 355° |
| 2026-05-01 10:09 | 53.09849 | 13.92663 | 33890 ft | 442 kts | 355° |
| 2026-05-01 10:09 | 53.12905 | 13.92071 | 34276 ft | 442 kts | 355° |
| 2026-05-01 10:09 | 53.15961 | 13.91478 | 34616 ft | 441 kts | 355° |
| 2026-05-01 10:09 | 53.19003 | 13.90804 | 34938 ft | 441 kts | 352° |
| 2026-05-01 10:10 | 53.22019 | 13.89842 | 35198 ft | 442 kts | 349° |
| 2026-05-01 10:10 | 53.25025 | 13.88762 | 35517 ft | 442 kts | 349° |
| 2026-05-01 10:10 | 53.31022 | 13.86539 | 36078 ft | 441 kts | 349° |
| 2026-05-01 10:11 | 53.34019 | 13.85446 | 36326 ft | 439 kts | 349° |
| 2026-05-01 10:11 | 53.37010 | 13.84370 | 36411 ft | 440 kts | 349° |
| 2026-05-01 10:11 | 53.42958 | 13.82255 | 36412 ft | 438 kts | 349° |
| 2026-05-01 10:12 | 53.47944 | 13.80485 | 36421 ft | 436 kts | 349° |
| 2026-05-01 10:13 | 53.57800 | 13.76972 | 36425 ft | 434 kts | 349° |
| 2026-05-01 10:13 | 53.63714 | 13.74855 | 36417 ft | 434 kts | 349° |
| 2026-05-01 10:14 | 53.72587 | 13.71681 | 36425 ft | 434 kts | 349° |
| 2026-05-01 10:14 | 53.78505 | 13.69579 | 36422 ft | 435 kts | 349° |
| 2026-05-01 10:15 | 53.84433 | 13.67459 | 36415 ft | 436 kts | 349° |
| 2026-05-01 10:15 | 53.90380 | 13.65327 | 36429 ft | 438 kts | 349° |
| 2026-05-01 10:16 | 53.96380 | 13.63434 | 36416 ft | 439 kts | 352° |
| 2026-05-01 10:17 | 54.04434 | 13.61449 | 36422 ft | 440 kts | 352° |
| 2026-05-01 10:17 | 54.13537 | 13.59112 | 36418 ft | 441 kts | 352° |
| 2026-05-01 10:18 | 54.22635 | 13.56736 | 36425 ft | 441 kts | 352° |
| 2026-05-01 10:19 | 54.28697 | 13.55177 | 36422 ft | 440 kts | 352° |
| 2026-05-01 10:19 | 54.34749 | 13.53622 | 36419 ft | 439 kts | 352° |
| 2026-05-01 10:20 | 54.43779 | 13.51337 | 36427 ft | 438 kts | 352° |
| 2026-05-01 10:20 | 54.49808 | 13.49803 | 36412 ft | 438 kts | 352° |
| 2026-05-01 10:21 | 54.58824 | 13.47432 | 36425 ft | 437 kts | 352° |
| 2026-05-01 10:22 | 54.67847 | 13.45027 | 36431 ft | 437 kts | 352° |
| 2026-05-01 10:23 | 54.76858 | 13.42613 | 36414 ft | 437 kts | 352° |
| 2026-05-01 10:23 | 54.85885 | 13.40176 | 36425 ft | 438 kts | 352° |
| 2026-05-01 10:24 | 54.97950 | 13.37159 | 36413 ft | 438 kts | 354° |
| 2026-05-01 10:25 | 55.10057 | 13.34696 | 36412 ft | 438 kts | 353° |
| 2026-05-01 10:26 | 55.16112 | 13.33422 | 36411 ft | 438 kts | 353° |
| 2026-05-01 10:27 | 55.28183 | 13.30839 | 36405 ft | 438 kts | 353° |
| 2026-05-01 10:28 | 55.37264 | 13.28883 | 36412 ft | 439 kts | 353° |
| 2026-05-01 10:28 | 55.46363 | 13.26916 | 36410 ft | 439 kts | 353° |
| 2026-05-01 10:29 | 55.55476 | 13.24936 | 36423 ft | 440 kts | 353° |
| 2026-05-01 10:30 | 55.67580 | 13.22291 | 36407 ft | 439 kts | 353° |
| 2026-05-01 10:31 | 55.79710 | 13.19625 | 36395 ft | 439 kts | 353° |
| 2026-05-01 10:32 | 55.88787 | 13.17619 | 36396 ft | 437 kts | 353° |
| 2026-05-01 10:33 | 56.00836 | 13.14941 | 36407 ft | 435 kts | 352° |
| 2026-05-01 10:34 | 56.09840 | 13.12929 | 36405 ft | 435 kts | 352° |
| 2026-05-01 10:34 | 56.15855 | 13.11580 | 36407 ft | 436 kts | 352° |
| 2026-05-01 10:35 | 56.24867 | 13.09550 | 36424 ft | 437 kts | 352° |
| 2026-05-01 10:35 | 56.30917 | 13.08181 | 36399 ft | 439 kts | 352° |
| 2026-05-01 10:36 | 56.40009 | 13.06117 | 36394 ft | 439 kts | 352° |
| 2026-05-01 10:37 | 56.46074 | 13.04735 | 36410 ft | 439 kts | 352° |
| 2026-05-01 10:37 | 56.55173 | 13.02653 | 36431 ft | 439 kts | 352° |
| 2026-05-01 10:38 | 56.61233 | 13.01260 | 36423 ft | 438 kts | 352° |
| 2026-05-01 10:38 | 56.67278 | 12.99867 | 36419 ft | 438 kts | 352° |
| 2026-05-01 10:39 | 56.73317 | 12.98470 | 36429 ft | 437 kts | 351° |
| 2026-05-01 10:39 | 56.79352 | 12.97070 | 36412 ft | 437 kts | 352° |
| 2026-05-01 10:40 | 56.85381 | 12.95666 | 36411 ft | 437 kts | 352° |
| 2026-05-01 10:40 | 56.91416 | 12.94257 | 36403 ft | 438 kts | 352° |
| 2026-05-01 10:41 | 56.97432 | 12.92847 | 36395 ft | 439 kts | 351° |
| 2026-05-01 10:42 | 57.06556 | 12.90695 | 36377 ft | 442 kts | 351° |
| 2026-05-01 10:42 | 57.12661 | 12.89256 | 36375 ft | 443 kts | 351° |
| 2026-05-01 10:43 | 57.18769 | 12.87813 | 36377 ft | 443 kts | 351° |
| 2026-05-01 10:43 | 57.24884 | 12.86360 | 36374 ft | 443 kts | 351° |
| 2026-05-01 10:44 | 57.30991 | 12.84900 | 36372 ft | 442 kts | 351° |
| 2026-05-01 10:44 | 57.37100 | 12.83436 | 36361 ft | 442 kts | 351° |
| 2026-05-01 10:45 | 57.43204 | 12.81970 | 36346 ft | 442 kts | 351° |
| 2026-05-01 10:45 | 57.49296 | 12.80504 | 36371 ft | 441 kts | 351° |
| 2026-05-01 10:46 | 57.55396 | 12.79029 | 36377 ft | 441 kts | 350° |
| 2026-05-01 10:46 | 57.61481 | 12.77552 | 36355 ft | 441 kts | 350° |
| 2026-05-01 10:47 | 57.67562 | 12.76069 | 36351 ft | 441 kts | 350° |
| 2026-05-01 10:47 | 57.73648 | 12.74581 | 36358 ft | 441 kts | 350° |
| 2026-05-01 10:48 | 57.79746 | 12.73088 | 36354 ft | 442 kts | 350° |
| 2026-05-01 10:48 | 57.85812 | 12.71596 | 36358 ft | 443 kts | 350° |
| 2026-05-01 10:49 | 57.91927 | 12.70085 | 36344 ft | 444 kts | 350° |
| 2026-05-01 10:49 | 57.98057 | 12.68567 | 36328 ft | 444 kts | 350° |
| 2026-05-01 10:50 | 58.04185 | 12.67045 | 36328 ft | 445 kts | 349° |
| 2026-05-01 10:50 | 58.10329 | 12.65513 | 36315 ft | 445 kts | 349° |
| 2026-05-01 10:51 | 58.16469 | 12.63976 | 36324 ft | 445 kts | 349° |
| 2026-05-01 10:51 | 58.22606 | 12.62436 | 36317 ft | 445 kts | 349° |
| 2026-05-01 10:52 | 58.28737 | 12.60891 | 36316 ft | 445 kts | 349° |
| 2026-05-01 10:52 | 58.34874 | 12.59339 | 36321 ft | 444 kts | 349° |
| 2026-05-01 10:53 | 58.41005 | 12.57783 | 36300 ft | 444 kts | 349° |
| 2026-05-01 10:53 | 58.47132 | 12.56223 | 36298 ft | 444 kts | 349° |
| 2026-05-01 10:54 | 58.53261 | 12.54656 | 36293 ft | 444 kts | 349° |
| 2026-05-01 10:54 | 58.59384 | 12.53086 | 36295 ft | 444 kts | 349° |
| 2026-05-01 10:55 | 58.65470 | 12.51520 | 36286 ft | 444 kts | 349° |
| 2026-05-01 10:55 | 58.71636 | 12.49927 | 36301 ft | 444 kts | 348° |
| 2026-05-01 10:56 | 58.77713 | 12.48352 | 36273 ft | 444 kts | 348° |
| 2026-05-01 10:56 | 58.83832 | 12.46760 | 36268 ft | 444 kts | 348° |
| 2026-05-01 10:57 | 58.89951 | 12.45163 | 36255 ft | 444 kts | 348° |
| 2026-05-01 10:57 | 58.96069 | 12.43560 | 36258 ft | 443 kts | 348° |
| 2026-05-01 10:58 | 59.02187 | 12.41952 | 36271 ft | 443 kts | 348° |
| 2026-05-01 10:58 | 59.08307 | 12.40337 | 36244 ft | 444 kts | 348° |
| 2026-05-01 10:59 | 59.14418 | 12.38718 | 36249 ft | 443 kts | 348° |
| 2026-05-01 10:59 | 59.20529 | 12.37094 | 36257 ft | 443 kts | 348° |
| 2026-05-01 11:00 | 59.26638 | 12.35465 | 36239 ft | 443 kts | 347° |
| 2026-05-01 11:00 | 59.32741 | 12.33832 | 36246 ft | 443 kts | 347° |
| 2026-05-01 11:01 | 59.38846 | 12.32191 | 36240 ft | 443 kts | 347° |
| 2026-05-01 11:01 | 59.44959 | 12.30543 | 36233 ft | 443 kts | 347° |
| 2026-05-01 11:02 | 59.51061 | 12.28891 | 36232 ft | 443 kts | 347° |
| 2026-05-01 11:02 | 59.57160 | 12.27235 | 36233 ft | 442 kts | 347° |
| 2026-05-01 11:03 | 59.62231 | 12.25853 | 36238 ft | 442 kts | 347° |
| 2026-05-01 11:03 | 59.68325 | 12.24186 | 36226 ft | 442 kts | 347° |
| 2026-05-01 11:04 | 59.74420 | 12.22514 | 36230 ft | 441 kts | 347° |
| 2026-05-01 11:04 | 59.80506 | 12.20837 | 36215 ft | 442 kts | 347° |
| 2026-05-01 11:05 | 59.86601 | 12.19151 | 36212 ft | 442 kts | 347° |
| 2026-05-01 11:05 | 59.92700 | 12.17458 | 36225 ft | 443 kts | 346° |
| 2026-05-01 11:06 | 59.98804 | 12.15758 | 36206 ft | 442 kts | 346° |
| 2026-05-01 11:06 | 60.04892 | 12.14057 | 36216 ft | 442 kts | 346° |
| 2026-05-01 11:07 | 60.14020 | 12.11493 | 36205 ft | 442 kts | 346° |
| 2026-05-01 11:07 | 60.20104 | 12.09776 | 36229 ft | 441 kts | 346° |
| 2026-05-01 11:08 | 60.26188 | 12.08053 | 36214 ft | 441 kts | 346° |
| 2026-05-01 11:09 | 60.35267 | 12.05469 | 36208 ft | 441 kts | 346° |
| 2026-05-01 11:09 | 60.41352 | 12.03727 | 36198 ft | 442 kts | 346° |
| 2026-05-01 11:10 | 60.50497 | 12.01100 | 36221 ft | 442 kts | 345° |
| 2026-05-01 11:10 | 60.56608 | 11.99336 | 36192 ft | 444 kts | 345° |
| 2026-05-01 11:11 | 60.62720 | 11.97565 | 36189 ft | 444 kts | 345° |
| 2026-05-01 11:11 | 60.68847 | 11.95783 | 36183 ft | 445 kts | 345° |
| 2026-05-01 11:12 | 60.74961 | 11.93998 | 36186 ft | 445 kts | 345° |
| 2026-05-01 11:12 | 60.81107 | 11.92196 | 36202 ft | 445 kts | 345° |
| 2026-05-01 11:13 | 60.87253 | 11.90388 | 36176 ft | 446 kts | 345° |
| 2026-05-01 11:13 | 60.93398 | 11.88573 | 36177 ft | 446 kts | 345° |
| 2026-05-01 11:14 | 60.99535 | 11.86754 | 36167 ft | 446 kts | 345° |
| 2026-05-01 11:14 | 61.05676 | 11.84926 | 36159 ft | 445 kts | 345° |
| 2026-05-01 11:15 | 61.11810 | 11.83092 | 36166 ft | 446 kts | 345° |
| 2026-05-01 11:15 | 61.17958 | 11.81246 | 36155 ft | 446 kts | 345° |
| 2026-05-01 11:16 | 61.24098 | 11.79397 | 36146 ft | 446 kts | 345° |
| 2026-05-01 11:16 | 61.30238 | 11.77541 | 36159 ft | 445 kts | 344° |
| 2026-05-01 11:17 | 61.36360 | 11.75682 | 36150 ft | 445 kts | 344° |
| 2026-05-01 11:17 | 61.42488 | 11.73814 | 36107 ft | 445 kts | 344° |
| 2026-05-01 11:18 | 61.45539 | 11.72876 | 35515 ft | 450 kts | 344° |
| 2026-05-01 11:18 | 61.48624 | 11.71932 | 34877 ft | 447 kts | 343° |
| 2026-05-01 11:18 | 61.51692 | 11.70994 | 34239 ft | 445 kts | 343° |
| 2026-05-01 11:18 | 61.54753 | 11.70055 | 33480 ft | 445 kts | 343° |
| 2026-05-01 11:19 | 61.57854 | 11.69100 | 32728 ft | 444 kts | 343° |
| 2026-05-01 11:19 | 61.60859 | 11.68172 | 32017 ft | 442 kts | 343° |
| 2026-05-01 11:19 | 61.63896 | 11.67234 | 31293 ft | 441 kts | 343° |
| 2026-05-01 11:19 | 61.66929 | 11.66292 | 30551 ft | 440 kts | 343° |
| 2026-05-01 11:20 | 61.69948 | 11.65357 | 29991 ft | 435 kts | 343° |
| 2026-05-01 11:20 | 61.72919 | 11.64440 | 29405 ft | 428 kts | 343° |
| 2026-05-01 11:20 | 61.75845 | 11.63536 | 28901 ft | 422 kts | 342° |
| 2026-05-01 11:20 | 61.78728 | 11.62638 | 28367 ft | 416 kts | 342° |
| 2026-05-01 11:21 | 61.81578 | 11.61749 | 27820 ft | 410 kts | 342° |
| 2026-05-01 11:21 | 61.84386 | 11.60867 | 27319 ft | 409 kts | 342° |
| 2026-05-01 11:21 | 61.87237 | 11.59951 | 26807 ft | 422 kts | 342° |
| 2026-05-01 11:21 | 61.90166 | 11.59006 | 26247 ft | 426 kts | 343° |
| 2026-05-01 11:22 | 61.93074 | 11.58089 | 25699 ft | 420 kts | 343° |
| 2026-05-01 11:22 | 61.95942 | 11.57194 | 25173 ft | 413 kts | 343° |
| 2026-05-01 11:22 | 61.98767 | 11.56311 | 24675 ft | 408 kts | 343° |
| 2026-05-01 11:22 | 62.01560 | 11.55433 | 24160 ft | 403 kts | 343° |
| 2026-05-01 11:23 | 62.04326 | 11.54556 | 23644 ft | 400 kts | 343° |
| 2026-05-01 11:23 | 62.07066 | 11.53684 | 23040 ft | 397 kts | 342° |
| 2026-05-01 11:23 | 62.09783 | 11.52816 | 22489 ft | 393 kts | 343° |
| 2026-05-01 11:23 | 62.12466 | 11.51959 | 21967 ft | 388 kts | 343° |
| 2026-05-01 11:24 | 62.15132 | 11.51107 | 21445 ft | 385 kts | 343° |
| 2026-05-01 11:24 | 62.17766 | 11.50261 | 20983 ft | 381 kts | 343° |
| 2026-05-01 11:24 | 62.23025 | 11.48554 | 19991 ft | 390 kts | 343° |
| 2026-05-01 11:25 | 62.25700 | 11.47675 | 19478 ft | 397 kts | 343° |
| 2026-05-01 11:25 | 62.31119 | 11.45927 | 18421 ft | 390 kts | 344° |
| 2026-05-01 11:25 | 62.33822 | 11.45060 | 17817 ft | 385 kts | 344° |
| 2026-05-01 11:26 | 62.36418 | 11.44226 | 17338 ft | 380 kts | 344° |
| 2026-05-01 11:26 | 62.41567 | 11.42559 | 16308 ft | 369 kts | 344° |
| 2026-05-01 11:26 | 62.44089 | 11.41736 | 15829 ft | 364 kts | 344° |
| 2026-05-01 11:27 | 62.46576 | 11.40922 | 15344 ft | 360 kts | 343° |
| 2026-05-01 11:27 | 62.49048 | 11.40110 | 14872 ft | 357 kts | 343° |
| 2026-05-01 11:27 | 62.51495 | 11.39305 | 14408 ft | 354 kts | 343° |
| 2026-05-01 11:27 | 62.53923 | 11.38506 | 13937 ft | 351 kts | 343° |
| 2026-05-01 11:28 | 62.56329 | 11.37713 | 13417 ft | 348 kts | 344° |
| 2026-05-01 11:28 | 62.58706 | 11.36928 | 13003 ft | 344 kts | 344° |
| 2026-05-01 11:28 | 62.61064 | 11.36149 | 12532 ft | 341 kts | 344° |
| 2026-05-01 11:29 | 62.65697 | 11.34615 | 11646 ft | 333 kts | 344° |
| 2026-05-01 11:29 | 62.67979 | 11.33856 | 11242 ft | 330 kts | 345° |
| 2026-05-01 11:29 | 62.72421 | 11.32383 | 10763 ft | 312 kts | 345° |
| 2026-05-01 11:30 | 62.74529 | 11.31682 | 10611 ft | 301 kts | 343° |
| 2026-05-01 11:30 | 62.76578 | 11.30998 | 10492 ft | 295 kts | 344° |
| 2026-05-01 11:30 | 62.78593 | 11.30316 | 10364 ft | 291 kts | 345° |
| 2026-05-01 11:30 | 62.80580 | 11.29650 | 10243 ft | 286 kts | 345° |
| 2026-05-01 11:31 | 62.82518 | 11.29008 | 10104 ft | 276 kts | 344° |
| 2026-05-01 11:31 | 62.84401 | 11.28579 | 9979 ft | 271 kts | 350° |
| 2026-05-01 11:31 | 62.86291 | 11.28440 | 9851 ft | 273 kts | 352° |
| 2026-05-01 11:31 | 62.88200 | 11.28343 | 9709 ft | 277 kts | 352° |
| 2026-05-01 11:32 | 62.90133 | 11.28237 | 9573 ft | 279 kts | 352° |
| 2026-05-01 11:32 | 62.92087 | 11.28117 | 9362 ft | 283 kts | 352° |
| 2026-05-01 11:32 | 62.94048 | 11.27987 | 9226 ft | 279 kts | 352° |
| 2026-05-01 11:32 | 62.95971 | 11.27852 | 9086 ft | 275 kts | 352° |
| 2026-05-01 11:33 | 62.97882 | 11.27711 | 8946 ft | 274 kts | 352° |
| 2026-05-01 11:33 | 62.99785 | 11.27574 | 8816 ft | 274 kts | 353° |
| 2026-05-01 11:33 | 63.01678 | 11.27908 | 8667 ft | 277 kts | 5° |
| 2026-05-01 11:33 | 63.03588 | 11.28796 | 8534 ft | 277 kts | 8° |
| 2026-05-01 11:34 | 63.05444 | 11.29732 | 8400 ft | 277 kts | 8° |
| 2026-05-01 11:34 | 63.07323 | 11.30644 | 8279 ft | 277 kts | 7° |
| 2026-05-01 11:34 | 63.09215 | 11.31514 | 8134 ft | 279 kts | 7° |
| 2026-05-01 11:34 | 63.11124 | 11.32380 | 7999 ft | 281 kts | 7° |
| 2026-05-01 11:35 | 63.13042 | 11.33175 | 7853 ft | 280 kts | 6° |
| 2026-05-01 11:35 | 63.14955 | 11.34038 | 7740 ft | 282 kts | 10° |
| 2026-05-01 11:35 | 63.16816 | 11.35477 | 7573 ft | 284 kts | 20° |
| 2026-05-01 11:35 | 63.18628 | 11.37117 | 7479 ft | 277 kts | 17° |
| 2026-05-01 11:36 | 63.20408 | 11.38664 | 7291 ft | 273 kts | 20° |
| 2026-05-01 11:36 | 63.22140 | 11.40226 | 7166 ft | 264 kts | 19° |
| 2026-05-01 11:36 | 63.23830 | 11.41683 | 7052 ft | 258 kts | 18° |
| 2026-05-01 11:36 | 63.25492 | 11.43108 | 6941 ft | 255 kts | 18° |
| 2026-05-01 11:37 | 63.27146 | 11.44526 | 6838 ft | 255 kts | 18° |
| 2026-05-01 11:37 | 63.28816 | 11.45964 | 6747 ft | 261 kts | 16° |
| 2026-05-01 11:37 | 63.30526 | 11.47433 | 6555 ft | 262 kts | 17° |
| 2026-05-01 11:37 | 63.32201 | 11.48886 | 6436 ft | 255 kts | 18° |
| 2026-05-01 11:38 | 63.33838 | 11.50310 | 6315 ft | 251 kts | 17° |
| 2026-05-01 11:38 | 63.35461 | 11.51713 | 6202 ft | 251 kts | 18° |
| 2026-05-01 11:38 | 63.37098 | 11.53134 | 6121 ft | 254 kts | 17° |
| 2026-05-01 11:38 | 63.38817 | 11.53720 | 5842 ft | 251 kts | 346° |
| 2026-05-01 11:39 | 63.40473 | 11.52650 | 5576 ft | 248 kts | 337° |
| 2026-05-01 11:39 | 63.42098 | 11.51361 | 5250 ft | 247 kts | 335° |
| 2026-05-01 11:39 | 63.43700 | 11.50060 | 4976 ft | 242 kts | 331° |
| 2026-05-01 11:39 | 63.44947 | 11.47818 | 4684 ft | 223 kts | 294° |
| 2026-05-01 11:40 | 63.45340 | 11.44641 | 4569 ft | 209 kts | 275° |
| 2026-05-01 11:40 | 63.45535 | 11.41466 | 4348 ft | 204 kts | 275° |
| 2026-05-01 11:40 | 63.45693 | 11.38334 | 4238 ft | 201 kts | 271° |
| 2026-05-01 11:40 | 63.45747 | 11.35287 | 4149 ft | 195 kts | 269° |
| 2026-05-01 11:41 | 63.45755 | 11.32244 | 3853 ft | 194 kts | 268° |
| 2026-05-01 11:41 | 63.45753 | 11.29291 | 3573 ft | 187 kts | 268° |
| 2026-05-01 11:41 | 63.45756 | 11.26427 | 3317 ft | 184 kts | 271° |
| 2026-05-01 11:41 | 63.45767 | 11.23552 | 2996 ft | 185 kts | 268° |
| 2026-05-01 11:42 | 63.45749 | 11.20702 | 2735 ft | 182 kts | 269° |
| 2026-05-01 11:42 | 63.45743 | 11.17898 | 2451 ft | 177 kts | 270° |
| 2026-05-01 11:42 | 63.45741 | 11.15187 | 2177 ft | 171 kts | 270° |
| 2026-05-01 11:42 | 63.45742 | 11.12592 | 1933 ft | 164 kts | 271° |
| 2026-05-01 11:43 | 63.45742 | 11.10071 | 1700 ft | 163 kts | 271° |
| 2026-05-01 11:43 | 63.45743 | 11.07610 | 1437 ft | 153 kts | 271° |
| 2026-05-01 11:43 | 63.45742 | 11.05278 | 1161 ft | 147 kts | 270° |
| 2026-05-01 11:44 | 63.45749 | 11.00866 | 823 ft | 140 kts | 270° |
| 2026-05-01 11:44 | 63.45751 | 10.98636 | 572 ft | 146 kts | 269° |
| 2026-05-01 11:44 | 63.45745 | 10.96392 | 392 ft | 145 kts | 270° |
| 2026-05-01 11:44 | 63.45754 | 10.94155 | 109 ft | 143 kts | 270° |
| 2026-05-01 11:45 | 63.45759 | 10.92119 | 39 ft | 106 kts | 270° |
| 2026-05-01 11:45 | 63.45761 | 10.90970 | 34 ft | 39 kts | 270° |
| 2026-05-01 11:45 | 63.45718 | 10.90481 | 31 ft | 17 kts | 240° |
| 2026-05-01 11:45 | 63.45636 | 10.90380 | 30 ft | 12 kts | 180° |
| 2026-05-01 11:46 | 63.45597 | 10.90489 | 32 ft | 10 kts | 92° |
| 2026-05-01 11:46 | 63.45597 | 10.90636 | 33 ft | 9 kts | 91° |
| 2026-05-01 11:46 | 63.45597 | 10.90780 | 34 ft | 9 kts | 90° |
| 2026-05-01 11:46 | 63.45597 | 10.90923 | 34 ft | 9 kts | 90° |
| 2026-05-01 11:47 | 63.45597 | 10.91070 | 34 ft | 6 kts | 90° |
| 2026-05-01 11:47 | 63.45596 | 10.91170 | 35 ft | 7 kts | 90° |
| 2026-05-01 11:47 | 63.45596 | 10.91277 | 36 ft | 7 kts | 90° |
| 2026-05-01 11:47 | 63.45596 | 10.91389 | 36 ft | 8 kts | 90° |
| 2026-05-01 11:48 | 63.45595 | 10.91484 | 38 ft | 11 kts | 90° |
| 2026-05-01 11:48 | 63.45595 | 10.91675 | 38 ft | 9 kts | 89° |
| 2026-05-01 11:48 | 63.45596 | 10.91788 | 38 ft | 4 kts | 89° |
| 2026-05-01 11:48 | 63.45567 | 10.91825 | 38 ft | 5 kts | 174° |
| 2026-05-01 11:49 | 63.45532 | 10.91825 | 38 ft | 3 kts | 180° |
| 2026-05-01 11:49 | 63.45517 | 10.91825 | 38 ft | 2 kts | 180° |
| 2026-05-01 11:49 | 63.45516 | 10.91825 | 38 ft | 0 kts | 180° |
| 2026-05-01 11:49 | 63.45512 | 10.91825 | 38 ft | 1 kts | 180° |
| 2026-05-01 11:50 | 63.45505 | 10.91825 | 38 ft | 1 kts | 180° |
| 2026-05-01 11:50 | 63.45499 | 10.91825 | 38 ft | 0 kts | 179° |